createdAt,value
2022-09-16T00:00:34.837Z,15.07
2022-09-16T00:03:02.729Z,15.06
2022-09-16T00:05:30.649Z,15.11
2022-09-16T00:07:58.182Z,15.12
2022-09-16T00:10:27.049Z,15.11
2022-09-16T00:12:54.558Z,15.13
2022-09-16T00:15:22.111Z,15.14
2022-09-16T00:17:49.702Z,15.14
2022-09-16T00:20:17.284Z,15.09
2022-09-16T00:22:44.825Z,15.16
2022-09-16T00:25:12.497Z,15.15
2022-09-16T00:27:41.428Z,15.10
2022-09-16T00:30:10.298Z,15.06
2022-09-16T00:32:37.798Z,14.97
2022-09-16T00:35:06.189Z,14.95
2022-09-16T00:37:33.878Z,14.90
2022-09-16T00:40:01.445Z,14.93
2022-09-16T00:42:29.098Z,14.97
2022-09-16T00:45:00.596Z,14.99
2022-09-16T00:47:33.687Z,15.06
2022-09-16T00:50:08.029Z,15.08
2022-09-16T00:52:36.425Z,15.15
2022-09-16T00:55:09.359Z,15.13
2022-09-16T00:57:38.676Z,15.14
2022-09-16T01:00:09.781Z,15.15
2022-09-16T01:02:37.351Z,15.13
2022-09-16T01:05:07.956Z,15.11
2022-09-16T01:07:44.715Z,15.13
2022-09-16T01:10:13.667Z,15.12
2022-09-16T01:12:44.529Z,15.08
2022-09-16T01:15:15.023Z,15.09
2022-09-16T01:17:55.992Z,15.08
2022-09-16T01:20:52.453Z,15.14
2022-09-16T01:23:37.424Z,15.10
2022-09-16T01:26:22.937Z,15.05
2022-09-16T01:29:22.813Z,14.99
2022-09-16T01:31:58.921Z,14.98
2022-09-16T01:34:33.820Z,14.97
2022-09-16T01:37:07.370Z,14.91
2022-09-16T01:39:41.283Z,14.84
2022-09-16T01:42:21.907Z,14.80
2022-09-16T01:44:57.960Z,14.77
2022-09-16T01:47:35.352Z,14.73
2022-09-16T01:50:10.408Z,14.68
2022-09-16T01:52:46.819Z,14.64
2022-09-16T01:55:22.000Z,14.62
2022-09-16T01:57:54.923Z,14.64
2022-09-16T02:00:23.632Z,14.64
2022-09-16T02:02:57.255Z,14.65
2022-09-16T02:05:28.868Z,14.68
2022-09-16T02:08:02.027Z,14.68
2022-09-16T02:10:33.583Z,14.65
2022-09-16T02:13:08.928Z,14.61
2022-09-16T02:15:39.095Z,14.62
2022-09-16T02:18:12.408Z,14.63
2022-09-16T02:20:42.892Z,14.63
2022-09-16T02:23:15.493Z,14.63
2022-09-16T02:25:47.295Z,14.62
2022-09-16T02:28:19.837Z,14.62
2022-09-16T02:30:52.964Z,14.62
2022-09-16T02:33:23.782Z,14.66
2022-09-16T02:35:55.126Z,14.68
2022-09-16T02:38:27.028Z,14.66
2022-09-16T02:40:57.799Z,14.66
2022-09-16T02:43:26.845Z,14.66
2022-09-16T02:46:06.643Z,14.68
2022-09-16T02:48:44.032Z,14.72
2022-09-16T02:51:22.663Z,14.72
2022-09-16T02:53:56.201Z,14.77
2022-09-16T02:56:28.355Z,14.78
2022-09-16T02:58:56.239Z,14.77
2022-09-16T03:01:25.850Z,14.78
2022-09-16T03:03:56.765Z,14.80
2022-09-16T03:06:25.940Z,14.80
2022-09-16T03:08:56.571Z,14.80
2022-09-16T03:11:37.989Z,14.79
2022-09-16T03:14:20.734Z,14.77
2022-09-16T03:16:55.070Z,14.75
2022-09-16T03:19:31.783Z,14.73
2022-09-16T03:22:07.135Z,14.71
2022-09-16T03:24:44.113Z,14.73
2022-09-16T03:27:15.353Z,14.73
2022-09-16T03:29:49.156Z,14.73
2022-09-16T03:32:21.997Z,14.73
2022-09-16T03:34:54.152Z,14.71
2022-09-16T03:37:24.465Z,14.68
2022-09-16T03:39:54.061Z,14.67
2022-09-16T03:42:22.507Z,14.65
2022-09-16T03:44:50.412Z,14.67
2022-09-16T03:47:18.684Z,14.72
2022-09-16T03:49:46.264Z,14.74
2022-09-16T03:52:17.236Z,14.78
2022-09-16T03:54:44.745Z,14.79
2022-09-16T03:57:12.655Z,14.79
2022-09-16T03:59:40.841Z,14.75
2022-09-16T04:02:08.449Z,14.75
2022-09-16T04:04:35.963Z,14.71
2022-09-16T04:07:03.534Z,14.64
2022-09-16T04:09:32.417Z,14.67
2022-09-16T04:11:59.937Z,14.65
2022-09-16T04:14:27.436Z,14.65
2022-09-16T04:16:55.999Z,14.66
2022-09-16T04:19:23.856Z,14.68
2022-09-16T04:21:51.468Z,14.72
2022-09-16T04:24:19.311Z,14.74
2022-09-16T04:26:48.200Z,14.78
2022-09-16T04:29:15.904Z,14.74
2022-09-16T04:31:43.883Z,14.78
2022-09-16T04:34:12.753Z,14.82
2022-09-16T04:36:40.502Z,14.83
2022-09-16T04:39:08.333Z,14.82
2022-09-16T04:41:36.344Z,14.86
2022-09-16T04:44:05.989Z,14.86
2022-09-16T04:46:33.982Z,14.93
2022-09-16T04:49:01.721Z,14.98
2022-09-16T04:51:32.065Z,14.94
2022-09-16T04:54:01.504Z,14.97
2022-09-16T04:56:31.415Z,15.01
2022-09-16T04:59:02.136Z,15.03
2022-09-16T05:01:32.907Z,15.04
2022-09-16T05:04:03.234Z,15.04
2022-09-16T05:06:33.194Z,15.09
2022-09-16T05:09:01.360Z,15.15
2022-09-16T05:11:31.267Z,15.08
2022-09-16T05:13:59.862Z,15.06
2022-09-16T05:16:28.592Z,15.08
2022-09-16T05:18:59.686Z,15.06
2022-09-16T05:21:29.183Z,15.03
2022-09-16T05:24:00.404Z,14.96
2022-09-16T05:26:29.956Z,14.89
2022-09-16T05:29:00.460Z,14.82
2022-09-16T05:31:30.864Z,14.88
2022-09-16T05:34:01.701Z,14.92
2022-09-16T05:36:31.126Z,14.94
2022-09-16T05:39:21.520Z,14.95
2022-09-16T05:41:46.719Z,14.96
2022-09-16T05:44:14.598Z,14.98
2022-09-16T05:46:43.406Z,14.99
2022-09-16T05:49:12.506Z,15.03
2022-09-16T05:51:42.010Z,15.02
2022-09-16T05:54:09.552Z,15.02
2022-09-16T05:56:37.087Z,15.03
2022-09-16T05:59:04.620Z,15.01
2022-09-16T06:01:36.617Z,15.01
2022-09-16T06:04:06.419Z,15.04
2022-09-16T06:06:37.619Z,15.06
2022-09-16T06:09:07.980Z,15.06
2022-09-16T06:11:38.280Z,15.04
2022-09-16T06:14:06.357Z,15.05
2022-09-16T06:16:34.756Z,15.04
2022-09-16T06:19:04.058Z,15.06
2022-09-16T06:21:32.139Z,15.02
2022-09-16T06:24:01.009Z,14.98
2022-09-16T06:26:28.691Z,14.97
2022-09-16T06:28:56.850Z,15.01
2022-09-16T06:31:26.170Z,15.08
2022-09-16T06:33:54.941Z,15.13
2022-09-16T06:36:24.373Z,15.21
2022-09-16T06:38:52.206Z,15.19
2022-09-16T06:41:22.148Z,15.17
2022-09-16T06:43:51.111Z,15.08
2022-09-16T06:46:20.558Z,15.03
2022-09-16T06:48:51.027Z,15.00
2022-09-16T06:51:20.261Z,14.92
2022-09-16T06:53:47.998Z,14.97
2022-09-16T06:56:17.384Z,15.03
2022-09-16T06:58:48.779Z,15.07
2022-09-16T07:01:18.543Z,15.01
2022-09-16T07:03:51.828Z,14.92
2022-09-16T07:06:20.602Z,14.82
2022-09-16T07:08:48.939Z,14.86
2022-09-16T07:11:18.645Z,14.97
2022-09-16T07:13:48.509Z,14.98
2022-09-16T07:16:17.799Z,15.08
2022-09-16T07:18:46.395Z,15.17
2022-09-16T07:21:15.578Z,15.19
2022-09-16T07:23:44.042Z,15.15
2022-09-16T07:26:14.696Z,15.25
2022-09-16T07:28:44.125Z,15.35
2022-09-16T07:31:15.446Z,15.47
2022-09-16T07:33:45.140Z,15.53
2022-09-16T07:36:14.768Z,15.54
2022-09-16T07:38:42.501Z,15.53
2022-09-16T07:41:12.171Z,15.62
2022-09-16T07:43:40.189Z,15.62
2022-09-16T07:46:10.316Z,15.69
2022-09-16T07:48:39.795Z,15.75
2022-09-16T07:51:10.458Z,15.79
2022-09-16T07:53:38.960Z,15.83
2022-09-16T07:56:09.987Z,15.82
2022-09-16T07:58:38.124Z,15.94
2022-09-16T08:01:07.686Z,16.08
2022-09-16T08:03:36.772Z,16.18
2022-09-16T08:06:08.710Z,16.24
2022-09-16T08:08:36.387Z,16.29
2022-09-16T08:11:04.367Z,16.37
2022-09-16T08:13:34.183Z,16.36
2022-09-16T08:16:03.925Z,16.31
2022-09-16T08:18:31.695Z,16.37
2022-09-16T08:21:01.207Z,16.39
2022-09-16T08:23:31.129Z,16.44
2022-09-16T08:25:59.366Z,16.42
2022-09-16T08:28:39.643Z,16.23
2022-09-16T08:31:16.784Z,16.01
2022-09-16T08:33:44.525Z,15.85
2022-09-16T08:36:15.631Z,15.88
2022-09-16T08:38:45.588Z,16.00
2022-09-16T08:41:37.641Z,15.95
2022-09-16T08:44:16.098Z,15.94
2022-09-16T08:46:51.465Z,15.58
2022-09-16T08:49:32.816Z,15.66
2022-09-16T08:52:03.233Z,15.73
2022-09-16T08:54:38.297Z,15.86
2022-09-16T08:57:07.394Z,15.95
2022-09-16T08:59:40.645Z,16.01
2022-09-16T09:02:28.045Z,16.10
2022-09-16T09:04:56.187Z,15.85
2022-09-16T09:07:33.752Z,15.99
2022-09-16T09:10:11.876Z,15.85
2022-09-16T09:12:44.647Z,15.85
2022-09-16T09:15:28.299Z,15.90
2022-09-16T09:18:15.216Z,16.01
2022-09-16T09:20:52.687Z,15.93
2022-09-16T09:23:45.100Z,15.78
2022-09-16T09:26:21.223Z,15.64
2022-09-16T09:29:01.277Z,15.49
2022-09-16T09:31:35.146Z,15.62
2022-09-16T09:34:14.023Z,15.68
2022-09-16T09:36:52.545Z,15.78
2022-09-16T09:39:36.513Z,15.72
2022-09-16T09:42:15.448Z,15.50
2022-09-16T09:44:51.310Z,15.44
2022-09-16T09:47:24.655Z,15.30
2022-09-16T09:49:56.177Z,15.32
2022-09-16T09:52:29.180Z,15.24
2022-09-16T09:55:01.731Z,15.15
2022-09-16T09:57:35.370Z,15.13
2022-09-16T10:00:10.048Z,15.11
2022-09-16T10:02:44.941Z,15.07
2022-09-16T10:05:22.421Z,15.15
2022-09-16T10:07:51.983Z,15.04
2022-09-16T10:10:23.171Z,14.89
2022-09-16T10:12:52.557Z,14.83
2022-09-16T10:15:25.680Z,14.82
2022-09-16T10:17:54.448Z,14.78
2022-09-16T10:20:27.558Z,14.74
2022-09-16T10:23:03.441Z,14.73
2022-09-16T10:25:33.117Z,14.87
2022-09-16T10:28:03.472Z,15.00
2022-09-16T10:30:34.090Z,15.12
2022-09-16T10:33:04.400Z,14.98
2022-09-16T10:35:33.296Z,15.05
2022-09-16T10:38:06.302Z,15.27
2022-09-16T10:40:34.987Z,15.34
2022-09-16T10:43:07.175Z,15.50
2022-09-16T10:45:37.382Z,15.70
2022-09-16T10:48:11.961Z,15.84
2022-09-16T10:50:39.518Z,16.06
2022-09-16T10:53:23.784Z,16.38
2022-09-16T10:55:58.925Z,16.58
2022-09-16T10:58:27.779Z,16.57
2022-09-16T11:01:07.929Z,16.79
2022-09-16T11:04:12.219Z,16.87
2022-09-16T11:06:52.116Z,17.22
2022-09-16T11:09:30.072Z,17.43
2022-09-16T11:12:44.399Z,17.26
2022-09-16T11:15:21.849Z,17.55
2022-09-16T11:18:03.279Z,17.57
2022-09-16T11:20:46.347Z,17.54
2022-09-16T11:23:27.926Z,17.59
2022-09-16T11:26:01.513Z,18.17
2022-09-16T11:28:58.320Z,18.38
2022-09-16T11:31:40.846Z,18.94
2022-09-16T11:34:20.596Z,18.70
2022-09-16T11:36:56.829Z,18.75
2022-09-16T11:39:42.148Z,19.01
2022-09-16T11:42:17.466Z,19.62
2022-09-16T11:44:49.672Z,19.56
2022-09-16T11:47:38.501Z,19.27
2022-09-16T11:50:21.951Z,19.48
2022-09-16T11:53:09.356Z,20.00
2022-09-16T11:55:48.496Z,20.46
2022-09-16T11:58:28.118Z,20.65
2022-09-16T12:01:01.373Z,21.27
2022-09-16T12:03:48.315Z,20.82
2022-09-16T12:06:19.806Z,21.19
2022-09-16T12:08:57.213Z,21.39
2022-09-16T12:11:32.951Z,21.89
2022-09-16T12:14:09.891Z,21.96
2022-09-16T12:16:43.982Z,21.46
2022-09-16T12:19:20.740Z,22.13
2022-09-16T12:21:57.735Z,22.54
2022-09-16T12:24:33.484Z,21.82
2022-09-16T12:27:07.426Z,20.75
2022-09-16T12:29:43.199Z,20.87
2022-09-16T12:32:14.629Z,21.61
2022-09-16T12:34:50.192Z,20.64
2022-09-16T12:37:30.623Z,20.39
2022-09-16T12:39:58.306Z,20.50
2022-09-16T12:42:53.709Z,20.69
2022-09-16T12:45:43.696Z,21.21
2022-09-16T12:48:37.853Z,21.50
2022-09-16T12:51:22.142Z,21.28
2022-09-16T12:54:25.565Z,20.69
2022-09-16T12:57:27.422Z,20.28
2022-09-16T13:00:11.652Z,19.79
2022-09-16T13:02:44.547Z,19.48
2022-09-16T13:05:19.613Z,19.01
2022-09-16T13:07:53.748Z,18.68
2022-09-16T13:10:53.854Z,17.94
2022-09-16T13:13:27.932Z,18.03
2022-09-16T13:15:57.821Z,18.23
2022-09-16T13:18:39.159Z,19.46
2022-09-16T13:21:13.227Z,19.35
2022-09-16T13:23:47.202Z,19.61
2022-09-16T13:26:15.418Z,19.51
2022-09-16T13:28:44.921Z,19.58
2022-09-16T13:31:21.339Z,19.31
2022-09-16T13:33:50.832Z,18.94
2022-09-16T13:36:31.689Z,19.22
2022-09-16T13:39:02.629Z,19.91
2022-09-16T13:41:38.192Z,21.87
2022-09-16T13:44:28.103Z,22.83
2022-09-16T13:46:55.641Z,21.71
2022-09-16T13:49:27.681Z,20.85
2022-09-16T13:51:55.581Z,20.25
2022-09-16T13:54:28.813Z,20.18
2022-09-16T13:57:14.482Z,20.39
2022-09-16T14:02:41.815Z,21.89
2022-09-16T14:05:28.574Z,22.91
2022-09-16T14:08:04.079Z,22.02
2022-09-16T14:10:40.412Z,20.83
2022-09-16T14:13:13.676Z,20.75
2022-09-16T14:15:43.097Z,20.63
2022-09-16T14:18:14.409Z,20.43
2022-09-16T14:20:53.806Z,20.47
2022-09-16T14:23:21.705Z,21.59
2022-09-16T14:25:52.301Z,23.22
2022-09-16T14:28:24.824Z,24.83
2022-09-16T14:30:56.077Z,27.17
2022-09-16T14:33:28.540Z,27.21
2022-09-16T14:35:57.483Z,27.44
2022-09-16T14:38:45.427Z,27.77
2022-09-16T14:41:22.777Z,27.78
2022-09-16T14:43:50.901Z,27.57
2022-09-16T14:46:18.435Z,26.98
2022-09-16T14:48:46.320Z,27.34
2022-09-16T14:51:22.146Z,27.70
2022-09-16T14:54:13.567Z,27.94
2022-09-16T14:57:00.908Z,27.86
2022-09-16T14:59:31.224Z,28.53
2022-09-16T15:02:02.464Z,30.04
2022-09-16T15:04:34.093Z,29.81
2022-09-16T15:07:12.427Z,29.86
2022-09-16T15:09:48.772Z,29.33
2022-09-16T15:12:26.394Z,27.94
2022-09-16T15:14:54.354Z,27.41
2022-09-16T15:17:25.188Z,27.25
2022-09-16T15:19:56.417Z,28.16
2022-09-16T15:22:24.784Z,28.84
2022-09-16T15:24:55.111Z,27.40
2022-09-16T15:27:26.636Z,25.74
2022-09-16T15:29:59.265Z,24.48
2022-09-16T15:32:31.445Z,24.17
2022-09-16T15:35:24.230Z,24.66
2022-09-16T15:37:53.311Z,23.46
2022-09-16T15:40:24.679Z,22.42
2022-09-16T15:43:05.365Z,21.51
2022-09-16T15:45:32.956Z,21.34
2022-09-16T15:48:03.701Z,21.11
2022-09-16T15:50:39.561Z,20.46
2022-09-16T15:53:11.613Z,19.79
2022-09-16T15:55:43.949Z,19.74
2022-09-16T15:58:17.572Z,19.51
2022-09-16T16:01:13.216Z,20.22
2022-09-16T16:03:52.893Z,20.94
2022-09-16T16:06:21.168Z,21.34
2022-09-16T16:08:50.289Z,21.27
2022-09-16T16:11:19.921Z,20.90
2022-09-16T16:13:50.045Z,20.72
2022-09-16T16:16:18.495Z,20.40
2022-09-16T16:18:47.156Z,20.02
2022-09-16T16:21:17.230Z,19.62
2022-09-16T16:23:45.264Z,19.22
2022-09-16T16:26:12.784Z,19.13
2022-09-16T16:28:40.275Z,18.96
2022-09-16T16:31:15.442Z,18.80
2022-09-16T16:33:45.121Z,18.58
2022-09-16T16:36:14.094Z,18.57
2022-09-16T16:38:41.735Z,18.40
2022-09-16T16:41:10.569Z,18.31
2022-09-16T16:43:38.068Z,18.21
2022-09-16T16:46:05.882Z,18.21
2022-09-16T16:48:35.665Z,18.16
2022-09-16T16:51:04.771Z,18.06
2022-09-16T16:53:32.615Z,18.03
2022-09-16T16:56:05.204Z,17.96
2022-09-16T16:58:33.218Z,17.80
2022-09-16T17:01:08.887Z,17.68
2022-09-16T17:03:37.804Z,17.57
2022-09-16T17:06:06.777Z,17.36
2022-09-16T17:08:34.372Z,17.34
2022-09-16T17:11:10.044Z,17.24
2022-09-16T17:13:37.865Z,17.13
2022-09-16T17:16:06.342Z,16.97
2022-09-16T17:18:35.015Z,16.87
2022-09-16T17:21:05.688Z,16.83
2022-09-16T17:23:33.319Z,16.88
2022-09-16T17:26:01.678Z,16.84
2022-09-16T17:28:29.940Z,16.81
2022-09-16T17:30:57.962Z,16.78
2022-09-16T17:33:26.214Z,16.76
2022-09-16T17:36:01.635Z,16.79
2022-09-16T17:38:30.857Z,16.77
2022-09-16T17:41:03.652Z,16.71
2022-09-16T17:43:32.625Z,16.67
2022-09-16T17:46:01.005Z,16.62
2022-09-16T17:48:29.284Z,16.54
2022-09-16T17:50:57.588Z,16.47
2022-09-16T17:53:25.580Z,16.30
2022-09-16T17:56:03.446Z,16.21
2022-09-16T17:58:31.361Z,16.14
2022-09-16T18:01:06.903Z,16.02
2022-09-16T18:03:34.679Z,15.95
2022-09-16T18:06:07.707Z,15.98
2022-09-16T18:08:35.750Z,15.91
2022-09-16T18:11:05.510Z,15.79
2022-09-16T18:13:33.645Z,15.89
2022-09-16T18:16:05.906Z,15.81
2022-09-16T18:18:33.563Z,15.72
2022-09-16T18:21:01.125Z,15.63
2022-09-16T18:23:28.757Z,15.37
2022-09-16T18:25:56.529Z,15.25
2022-09-16T18:28:25.431Z,15.16
2022-09-16T18:31:02.416Z,15.13
2022-09-16T18:33:30.120Z,15.06
2022-09-16T18:36:02.185Z,14.96
2022-09-16T18:38:30.056Z,14.90
2022-09-16T18:41:08.896Z,14.88
2022-09-16T18:43:39.059Z,14.85
2022-09-16T18:46:11.896Z,14.92
2022-09-16T18:48:40.572Z,14.81
2022-09-16T18:51:18.211Z,14.78
2022-09-16T18:53:46.400Z,14.73
2022-09-16T18:56:16.494Z,14.67
2022-09-16T18:58:58.320Z,14.61
2022-09-16T19:01:35.031Z,14.29
2022-09-16T19:04:05.027Z,14.16
2022-09-16T19:06:34.476Z,14.28
2022-09-16T19:09:03.535Z,14.30
2022-09-16T19:11:31.060Z,14.19
2022-09-16T19:14:00.488Z,13.97
2022-09-16T19:16:28.097Z,13.91
2022-09-16T19:18:56.940Z,13.95
2022-09-16T19:21:25.037Z,13.65
2022-09-16T19:23:56.645Z,13.63
2022-09-16T19:26:24.232Z,13.61
2022-09-16T19:28:51.937Z,13.69
2022-09-16T19:31:20.932Z,13.73
2022-09-16T19:33:48.845Z,13.86
2022-09-16T19:36:19.001Z,13.98
2022-09-16T19:38:47.721Z,14.09
2022-09-16T19:41:16.608Z,14.14
2022-09-16T19:43:44.219Z,14.25
2022-09-16T19:46:13.528Z,14.29
2022-09-16T19:48:44.552Z,14.33
2022-09-16T19:51:14.040Z,14.33
2022-09-16T19:53:42.835Z,14.36
2022-09-16T19:56:12.475Z,14.29
2022-09-16T19:58:40.760Z,14.12
2022-09-16T20:01:10.835Z,14.13
2022-09-16T20:03:41.268Z,14.17
2022-09-16T20:06:11.644Z,14.19
2022-09-16T20:08:40.935Z,14.20
2022-09-16T20:11:10.168Z,14.21
2022-09-16T20:13:38.963Z,14.05
2022-09-16T20:16:08.652Z,13.92
2022-09-16T20:18:37.495Z,13.86
2022-09-16T20:21:06.913Z,13.76
2022-09-16T20:23:36.301Z,13.54
2022-09-16T20:26:05.859Z,13.41
2022-09-16T20:28:34.716Z,13.35
2022-09-16T20:31:03.100Z,13.20
2022-09-16T20:33:33.382Z,13.15
2022-09-16T20:36:03.947Z,13.05
2022-09-16T20:38:31.915Z,13.07
2022-09-16T20:41:05.145Z,12.99
2022-09-16T20:43:32.962Z,12.98
2022-09-16T20:46:04.890Z,13.00
2022-09-16T20:48:32.480Z,12.97
2022-09-16T20:51:03.999Z,12.92
2022-09-16T20:53:31.515Z,12.97
2022-09-16T20:56:03.536Z,12.96
2022-09-16T20:58:31.569Z,12.86
2022-09-16T21:01:04.965Z,12.86
2022-09-16T21:03:32.684Z,12.89
2022-09-16T21:06:05.348Z,12.86
2022-09-16T21:08:35.044Z,12.70
2022-09-16T21:11:07.239Z,12.73
2022-09-16T21:13:35.672Z,12.78
2022-09-16T21:16:03.690Z,12.75
2022-09-16T21:18:31.723Z,12.86
2022-09-16T21:21:00.860Z,12.72
2022-09-16T21:23:28.914Z,12.74
2022-09-16T21:25:56.524Z,12.66
2022-09-16T21:28:25.390Z,12.58
2022-09-16T21:31:00.847Z,12.52
2022-09-16T21:33:29.245Z,12.47
2022-09-16T21:35:56.931Z,12.43
2022-09-16T21:38:25.005Z,12.37
2022-09-16T21:40:57.264Z,12.54
2022-09-16T21:43:28.375Z,12.51
2022-09-16T21:45:56.029Z,12.53
2022-09-16T21:48:24.948Z,12.66
2022-09-16T21:50:53.502Z,12.70
2022-09-16T21:53:21.155Z,12.76
2022-09-16T21:55:48.788Z,12.62
2022-09-16T21:58:16.380Z,12.60
2022-09-16T22:00:45.311Z,12.64
2022-09-16T22:03:12.916Z,12.59
2022-09-16T22:05:40.712Z,12.66
2022-09-16T22:08:08.274Z,12.71
2022-09-16T22:10:35.782Z,12.66
2022-09-16T22:13:04.326Z,12.66
2022-09-16T22:15:32.311Z,12.66
2022-09-16T22:18:02.219Z,12.64
2022-09-16T22:20:29.741Z,12.74
2022-09-16T22:22:57.244Z,12.71
2022-09-16T22:25:24.796Z,12.74
2022-09-16T22:27:52.317Z,12.78
2022-09-16T22:30:19.863Z,12.79
2022-09-16T22:32:47.376Z,12.75
2022-09-16T22:35:16.436Z,12.82
2022-09-16T22:37:44.024Z,12.87
2022-09-16T22:40:11.942Z,12.93
2022-09-16T22:42:39.500Z,12.92
2022-09-16T22:45:08.043Z,12.92
2022-09-16T22:47:35.700Z,12.89
2022-09-16T22:50:03.283Z,12.92
2022-09-16T22:52:32.726Z,12.95
2022-09-16T22:55:00.339Z,12.96
2022-09-16T22:57:29.696Z,12.92
2022-09-16T22:59:57.217Z,12.93
2022-09-16T23:02:24.815Z,12.93
2022-09-16T23:04:53.998Z,12.93
2022-09-16T23:07:21.525Z,12.93
2022-09-16T23:09:50.487Z,12.88
2022-09-16T23:12:18.002Z,12.84
2022-09-16T23:14:45.500Z,12.73
2022-09-16T23:17:13.060Z,12.72
2022-09-16T23:19:40.546Z,12.77
2022-09-16T23:22:08.199Z,12.78
2022-09-16T23:24:35.851Z,12.76
2022-09-16T23:27:05.624Z,12.80
2022-09-16T23:29:33.141Z,12.84
2022-09-16T23:32:02.548Z,12.89
2022-09-16T23:34:30.089Z,12.92
2022-09-16T23:36:57.637Z,12.90
2022-09-16T23:39:25.295Z,12.77
2022-09-16T23:41:52.824Z,12.65
2022-09-16T23:44:22.412Z,12.59
2022-09-16T23:46:50.067Z,12.52
2022-09-16T23:49:20.173Z,12.43
2022-09-16T23:51:48.455Z,12.32
2022-09-16T23:54:17.140Z,12.20
2022-09-16T23:56:44.921Z,12.23
2022-09-16T23:59:12.664Z,12.20
